WXM80 ListenWXM80 Stop

You find our weather info also at:

UK Metoffice

WeatherCloud

Weather Underground

Northeastern Weather Network

AWEKAS

Citizen Weather Observer Program (CWOP)

HAMweather, WeatherForYou, PWS Weather


Weather Underground History page Text

Daily Summary for October 22, 2016 Units:  English    Metric   Both
« Previous Day
Next Day »
Daily Weekly Monthly Yearly Custom
  High: Low: Average:
Temperature: TemperatureF °F 47.0 °F 52.3 °F
Dew Point: DewpointF °F 39.0 °F 48.4 °F
Humidity: Humidity % 66 % 87 %
Wind Speed: WindSpeedMPH mph 0.0 mph 6.6 mph
Wind Gust: WindSpeedGustMPH mph - -
Wind:- - West
Pressure: PressureIn in 29.31 in -
Precipitation: 0.39 in    
Historical Graphs
 
 
Tabular Data for October 22, 2016
Time Temperature Dew Point Pressure Wind Wind Speed Wind Gust Humidity Rainfall Rate (Hourly)
TemperatureF °F DewpointF °F PressureIn in Calm     Humidity % HourlyPrecipIn in
00:04 64.0 °F 62.5 °F 29.36 in Calm     95 % 0.00 in
00:09 64.0 °F 62.5 °F 29.36 in Calm     95 % 0.00 in
00:14 64.0 °F 62.8 °F 29.36 in Calm     96 % 0.00 in
00:19 64.0 °F 62.8 °F 29.36 in Calm     96 % 0.00 in
00:24 64.1 °F 62.9 °F 29.36 in Calm     96 % 0.00 in
00:29 64.1 °F 62.9 °F 29.35 in Calm     96 % 0.00 in
00:35 64.1 °F 62.9 °F 29.35 in Calm     96 % 0.00 in
00:40 64.2 °F 63.0 °F 29.35 in Calm     96 % 0.00 in
00:45 64.3 °F 63.1 °F 29.34 in Calm     96 % 0.00 in
00:50 64.3 °F 63.1 °F 29.34 in Calm     96 % 0.00 in
00:55 64.4 °F 63.2 °F 29.34 in West 0.1 mph 1.2 mph 96 % 0.00 in
01:00 64.5 °F 63.6 °F 29.34 in Calm     97 % 0.00 in
01:05 64.6 °F 63.7 °F 29.33 in Calm     97 % 0.00 in
01:10 64.7 °F 63.8 °F 29.33 in Calm     97 % 0.00 in
01:15 64.8 °F 63.9 °F 29.33 in Calm     97 % 0.00 in
01:20 64.9 °F 64.0 °F 29.34 in West 0.4 mph 1.0 mph 97 % 0.00 in
01:26 65.0 °F 64.1 °F 29.33 in Calm   2.0 mph 97 % 0.00 in
01:31 65.0 °F 64.1 °F 29.34 in West 2.0 mph 5.0 mph 97 % 0.00 in
01:36 65.2 °F 64.3 °F 29.34 in WSW 3.0 mph 10.0 mph 97 % 0.00 in
01:41 65.1 °F 64.2 °F 29.34 in West 2.0 mph 12.0 mph 97 % 0.00 in
01:46 64.6 °F 63.4 °F 29.33 in West 2.0 mph 12.0 mph 96 % 0.00 in
01:51 64.0 °F 62.5 °F 29.34 in WSW 2.0 mph 12.0 mph 95 % 0.00 in
01:56 63.6 °F 62.1 °F 29.33 in SW 3.0 mph 10.0 mph 95 % 0.00 in
02:01 63.3 °F 61.8 °F 29.34 in SW 1.4 mph 3.5 mph 95 % 0.01 in
02:06 63.1 °F 61.6 °F 29.34 in WNW 4.6 mph 8.0 mph 95 % 0.02 in
02:11 62.9 °F 61.4 °F 29.34 in West 2.1 mph 4.6 mph 95 % 0.02 in
02:16 62.7 °F 61.2 °F 29.33 in SW 4.0 mph 6.9 mph 95 % 0.02 in
02:21 62.5 °F 61.0 °F 29.33 in WSW 1.5 mph 5.8 mph 95 % 0.02 in
02:26 62.4 °F 60.9 °F 29.34 in SW 5.4 mph 9.0 mph 95 % 0.02 in
02:31 62.3 °F 61.1 °F 29.34 in West 4.5 mph 5.8 mph 96 % 0.02 in
02:36 62.2 °F 60.8 °F 29.33 in SSW 4.3 mph 6.0 mph 95 % 0.01 in
02:41 62.0 °F 60.6 °F 29.33 in West 3.1 mph 4.6 mph 95 % 0.01 in
02:47 61.8 °F 60.4 °F 29.33 in West 2.3 mph 9.2 mph 95 % 0.01 in
02:52 61.6 °F 60.2 °F 29.33 in West 3.3 mph 6.9 mph 95 % 0.01 in
02:57 61.3 °F 59.9 °F 29.33 in WNW 5.1 mph 12.7 mph 95 % 0.01 in
03:02 61.1 °F 59.7 °F 29.33 in WNW 2.8 mph 8.1 mph 95 % 0.01 in
03:07 60.9 °F 59.5 °F 29.33 in WNW 3.0 mph 3.5 mph 95 % 0.00 in
03:11 60.8 °F 59.4 °F 29.33 in WSW 3.2 mph 5.8 mph 95 % 0.00 in
03:17 60.6 °F 59.2 °F 29.33 in WNW 3.5 mph 3.5 mph 95 % 0.00 in
03:22 60.5 °F 59.1 °F 29.33 in WNW 3.2 mph 9.2 mph 95 % 0.00 in
03:27 60.4 °F 59.0 °F 29.33 in WNW 2.0 mph 3.5 mph 95 % 0.00 in
03:32 60.3 °F 58.9 °F 29.33 in WNW 2.6 mph 5.8 mph 95 % 0.00 in
03:37 60.2 °F 58.8 °F 29.33 in NW 4.0 mph 9.2 mph 95 % 0.00 in
03:42 60.2 °F 58.8 °F 29.33 in NW 0.5 mph 3.5 mph 95 % 0.00 in
03:47 60.1 °F 58.7 °F 29.33 in West 1.6 mph 5.0 mph 95 % 0.00 in
03:52 60.0 °F 58.6 °F 29.33 in NW 4.8 mph 11.5 mph 95 % 0.00 in
03:57 59.9 °F 58.5 °F 29.33 in WNW 3.9 mph 8.1 mph 95 % 0.00 in
04:02 59.6 °F 58.2 °F 29.33 in NNW 6.7 mph 6.9 mph 95 % 0.00 in
04:08 59.4 °F 58.0 °F 29.33 in West 3.5 mph 10.4 mph 95 % 0.00 in
04:13 59.2 °F 57.8 °F 29.33 in WNW 3.3 mph 12.0 mph 95 % 0.00 in
04:18 59.0 °F 57.6 °F 29.33 in NW 2.4 mph 8.0 mph 95 % 0.00 in
04:23 58.7 °F 57.0 °F 29.34 in West 3.6 mph 9.2 mph 94 % 0.00 in
04:28 58.5 °F 56.8 °F 29.34 in NNW 3.6 mph 8.0 mph 94 % 0.00 in
04:33 58.2 °F 56.2 °F 29.34 in West 2.4 mph 5.8 mph 93 % 0.00 in
04:38 57.8 °F 55.8 °F 29.34 in WSW 4.8 mph 7.0 mph 93 % 0.00 in
04:43 57.7 °F 55.7 °F 29.34 in NW 2.3 mph 3.5 mph 93 % 0.00 in
04:44 57.7 °F 55.7 °F 29.34 in WNW 2.5 mph 4.0 mph 93 % 0.00 in
04:49 57.6 °F 55.6 °F 29.34 in West 4.8 mph 10.4 mph 93 % 0.00 in
04:54 57.3 °F 55.3 °F 29.34 in WNW 6.5 mph 11.0 mph 93 % 0.00 in
04:59 57.1 °F 55.1 °F 29.34 in North 2.0 mph 11.5 mph 93 % 0.01 in
05:05 56.9 °F 54.9 °F 29.35 in WNW 4.4 mph 9.0 mph 93 % 0.01 in
05:10 56.8 °F 54.8 °F 29.35 in WNW 6.6 mph 8.1 mph 93 % 0.01 in
05:12 56.8 °F 54.8 °F 29.35 in WSW 8.7 mph 15.0 mph 93 % 0.01 in
05:17 56.6 °F 54.6 °F 29.35 in WNW 6.0 mph 15.0 mph 93 % 0.01 in
05:22 56.3 °F 54.3 °F 29.35 in West 4.6 mph 15.0 mph 93 % 0.01 in
05:26 56.1 °F 54.1 °F 29.35 in WNW 3.8 mph 9.2 mph 93 % 0.01 in
05:31 55.8 °F 53.8 °F 29.35 in NNW 4.7 mph 15.0 mph 93 % 0.01 in
05:33 55.8 °F 53.5 °F 29.35 in NNE 3.3 mph 11.5 mph 92 % 0.01 in
05:35 55.6 °F 53.3 °F 29.35 in North 6.4 mph 9.2 mph 92 % 0.01 in
05:45 55.1 °F 52.5 °F 29.35 in NW 3.0 mph 6.9 mph 91 % 0.01 in
05:50 54.9 °F 52.3 °F 29.34 in NW 7.8 mph 18.4 mph 91 % 0.01 in
05:56 54.8 °F 52.2 °F 29.35 in North 7.0 mph 14.0 mph 91 % 0.00 in
05:57 54.7 °F 52.1 °F 29.35 in NNE 4.1 mph 10.4 mph 91 % 0.00 in
06:02 54.7 °F 52.4 °F 29.34 in WNW 5.3 mph 10.4 mph 92 % 0.00 in
06:03 54.7 °F 52.4 °F 29.35 in North 3.8 mph 11.5 mph 92 % 0.00 in
06:06 54.6 °F 52.3 °F 29.34 in WSW 3.4 mph 5.0 mph 92 % 0.00 in
06:11 54.6 °F 52.3 °F 29.34 in WNW 4.1 mph 10.4 mph 92 % 0.00 in
06:17 54.6 °F 52.0 °F 29.34 in NNE 4.4 mph 11.5 mph 91 % 0.00 in
06:22 54.6 °F 52.3 °F 29.34 in NW 1.6 mph 8.1 mph 92 % 0.00 in
06:27 54.6 °F 52.0 °F 29.34 in WNW 5.9 mph 10.4 mph 91 % 0.00 in
06:32 54.5 °F 51.9 °F 29.34 in WNW 4.8 mph 11.5 mph 91 % 0.00 in
06:37 54.5 °F 51.9 °F 29.34 in NW 3.0 mph 8.1 mph 91 % 0.00 in
06:42 54.5 °F 51.9 °F 29.34 in NNE 3.7 mph 9.2 mph 91 % 0.00 in
06:47 54.4 °F 51.5 °F 29.33 in NNW 6.1 mph 10.4 mph 90 % 0.00 in
06:52 54.4 °F 51.8 °F 29.33 in North 6.7 mph 12.7 mph 91 % 0.02 in
06:57 54.2 °F 51.9 °F 29.35 in NNW 3.4 mph 11.5 mph 92 % 0.03 in
07:02 54.1 °F 51.8 °F 29.34 in North 2.7 mph 9.2 mph 92 % 0.04 in
07:07 54.0 °F 52.0 °F 29.34 in NNW 4.5 mph 9.2 mph 93 % 0.07 in
07:12 53.9 °F 51.9 °F 29.34 in North 5.1 mph 9.2 mph 93 % 0.08 in
07:17 53.7 °F 51.7 °F 29.34 in NNW 3.8 mph 9.0 mph 93 % 0.08 in
07:23 53.6 °F 51.6 °F 29.34 in NW 3.2 mph 7.0 mph 93 % 0.08 in
07:28 53.6 °F 51.9 °F 29.34 in NNW 2.9 mph 8.0 mph 94 % 0.09 in
07:33 53.5 °F 51.8 °F 29.34 in WNW 4.3 mph 9.2 mph 94 % 0.09 in
07:38 53.4 °F 51.7 °F 29.34 in WNW 5.1 mph 11.5 mph 94 % 0.09 in
07:43 53.3 °F 51.6 °F 29.33 in WSW 3.8 mph 13.0 mph 94 % 0.10 in
07:48 53.3 °F 51.6 °F 29.33 in West 6.1 mph 16.1 mph 94 % 0.10 in
07:53 53.2 °F 51.5 °F 29.34 in West 6.7 mph 18.4 mph 94 % 0.07 in
07:58 53.0 °F 51.3 °F 29.34 in WNW 6.9 mph 12.7 mph 94 % 0.07 in
08:03 52.8 °F 51.1 °F 29.33 in SSW 4.3 mph 13.8 mph 94 % 0.06 in
08:08 52.7 °F 51.0 °F 29.33 in WNW 2.3 mph 11.5 mph 94 % 0.04 in
08:09 52.7 °F 51.0 °F 29.33 in West 2.4 mph 9.2 mph 94 % 0.04 in
08:14 52.6 °F 50.9 °F 29.34 in WNW 8.5 mph 17.3 mph 94 % 0.03 in
08:15 52.6 °F 50.9 °F 29.34 in WNW 3.4 mph 16.1 mph 94 % 0.03 in
08:20 52.6 °F 50.9 °F 29.35 in NNW 3.7 mph 6.9 mph 94 % 0.03 in
08:26 52.5 °F 50.8 °F 29.35 in NW 5.0 mph 14.0 mph 94 % 0.00 in
08:31 52.5 °F 50.8 °F 29.35 in WNW 6.0 mph 13.0 mph 94 % 0.00 in
08:32 52.5 °F 50.8 °F 29.35 in WNW 2.7 mph 6.9 mph 94 % 0.03 in
08:37 52.4 °F 50.7 °F 29.36 in NW 7.5 mph 12.7 mph 94 % 0.03 in
08:42 52.4 °F 50.7 °F 29.36 in WSW 6.5 mph 17.3 mph 94 % 0.04 in
08:47 52.4 °F 50.7 °F 29.36 in WNW 5.6 mph 12.7 mph 94 % 0.05 in
08:52 52.3 °F 50.6 °F 29.37 in WNW 5.8 mph 12.7 mph 94 % 0.06 in
08:57 52.3 °F 50.6 °F 29.36 in North 5.1 mph 6.9 mph 94 % 0.06 in
09:02 52.3 °F 50.9 °F 29.35 in NNW 3.5 mph 8.1 mph 95 % 0.07 in
09:04 52.3 °F 50.9 °F 29.35 in North 5.8 mph 10.4 mph 95 % 0.08 in
09:09 52.3 °F 50.9 °F 29.34 in NNW 5.6 mph 10.4 mph 95 % 0.09 in
09:14 52.2 °F 50.8 °F 29.33 in North 4.3 mph 7.0 mph 95 % 0.09 in
09:17 52.2 °F 50.8 °F 29.33 in NW 6.1 mph 11.5 mph 95 % 0.10 in
09:22 52.1 °F 50.7 °F 29.33 in NE 4.5 mph 8.1 mph 95 % 0.10 in
09:25 52.1 °F 50.7 °F 29.33 in West 5.2 mph 11.5 mph 95 % 0.11 in
09:30 52.0 °F 50.6 °F 29.32 in North 9.3 mph 13.8 mph 95 % 0.10 in
09:31 52.0 °F 50.6 °F 29.32 in North 6.8 mph 13.8 mph 95 % 0.10 in
09:36 51.8 °F 50.4 °F 29.31 in NNE 9.5 mph 16.1 mph 95 % 0.10 in
09:40 51.7 °F 50.3 °F 29.31 in NNE 10.7 mph 16.1 mph 95 % 0.09 in
09:45 51.7 °F 50.3 °F 29.32 in NW 9.1 mph 15.0 mph 95 % 0.09 in
09:50 51.5 °F 50.1 °F 29.33 in NNE 6.2 mph 11.5 mph 95 % 0.08 in
09:52 51.5 °F 50.1 °F 29.33 in NE 8.6 mph 13.8 mph 95 % 0.07 in
09:59 51.3 °F 49.6 °F 29.33 in NNE 6.8 mph 15.0 mph 94 % 0.06 in
10:04 51.3 °F 49.9 °F 29.33 in NNW 5.1 mph 11.5 mph 95 % 0.04 in
10:09 51.4 °F 50.0 °F 29.33 in NE 4.7 mph 10.0 mph 95 % 0.04 in
10:14 51.5 °F 50.1 °F 29.34 in NW 4.5 mph 6.0 mph 95 % 0.04 in
10:19 51.6 °F 50.2 °F 29.34 in NE 2.8 mph 11.5 mph 95 % 0.03 in
10:24 51.6 °F 50.2 °F 29.34 in NW 1.1 mph 3.5 mph 95 % 0.02 in
10:25 51.7 °F 50.3 °F 29.35 in WNW 3.6 mph 6.0 mph 95 % 0.02 in
10:28 51.7 °F 50.3 °F 29.35 in WNW 4.9 mph 10.4 mph 95 % 0.02 in
10:31 51.7 °F 50.0 °F 29.35 in SW 6.5 mph 12.7 mph 94 % 0.02 in
10:32 51.6 °F 49.9 °F 29.35 in NW 4.5 mph 12.7 mph 94 % 0.02 in
10:37 51.6 °F 49.9 °F 29.35 in West 6.4 mph 10.4 mph 94 % 0.02 in
10:39 51.6 °F 49.9 °F 29.35 in West 1.6 mph 10.4 mph 94 % 0.02 in
10:41 51.6 °F 49.9 °F 29.35 in West 7.1 mph 12.0 mph 94 % 0.02 in
10:42 51.6 °F 49.9 °F 29.35 in WNW 6.0 mph 11.5 mph 94 % 0.01 in
10:47 51.5 °F 49.5 °F 29.35 in WNW 8.6 mph 17.0 mph 93 % 0.01 in
10:52 51.4 °F 49.4 °F 29.35 in NW 7.0 mph 11.5 mph 93 % 0.01 in
10:57 51.4 °F 49.2 °F 29.36 in WNW 5.7 mph 11.5 mph 92 % 0.01 in
11:02 51.5 °F 49.3 °F 29.36 in WNW 6.0 mph 13.8 mph 92 % 0.01 in
11:08 51.5 °F 49.3 °F 29.36 in WNW 6.1 mph 10.4 mph 92 % 0.01 in
11:13 51.5 °F 49.0 °F 29.36 in NW 8.1 mph 18.4 mph 91 % 0.00 in
11:18 51.4 °F 48.6 °F 29.36 in WNW 6.3 mph 12.7 mph 90 % 0.00 in
11:19 51.5 °F 48.7 °F 29.36 in WNW 7.1 mph 11.5 mph 90 % 0.00 in
11:23 51.5 °F 48.7 °F 29.36 in NW 8.3 mph 16.1 mph 90 % 0.00 in
11:28 51.6 °F 48.8 °F 29.36 in West 8.4 mph 15.0 mph 90 % 0.00 in
11:33 51.7 °F 49.2 °F 29.36 in WSW 8.8 mph 12.7 mph 91 % 0.00 in
11:38 51.8 °F 49.3 °F 29.36 in WSW 5.7 mph 9.2 mph 91 % 0.00 in
11:42 51.8 °F 49.3 °F 29.36 in WSW 2.6 mph 6.9 mph 91 % 0.00 in
11:45 51.7 °F 48.9 °F 29.36 in West 7.7 mph 14.0 mph 90 % 0.00 in
11:47 51.7 °F 48.9 °F 29.36 in WSW 6.9 mph 17.3 mph 90 % 0.00 in
11:52 51.5 °F 48.4 °F 29.37 in NW 6.4 mph 12.7 mph 89 % 0.00 in
11:56 51.4 °F 48.3 °F 29.36 in WSW 5.9 mph 15.0 mph 89 % 0.00 in
11:58 51.3 °F 48.2 °F 29.37 in WSW 5.4 mph 17.3 mph 89 % 0.00 in
12:03 51.0 °F 47.9 °F 29.37 in West 7.3 mph 15.0 mph 89 % 0.00 in
12:04 51.0 °F 47.9 °F 29.36 in WNW 6.9 mph 17.0 mph 89 % 0.00 in
12:09 50.8 °F 47.7 °F 29.36 in NW 4.7 mph 11.5 mph 89 % 0.00 in
12:14 50.7 °F 47.6 °F 29.36 in West 7.2 mph 17.3 mph 89 % 0.00 in
12:19 50.5 °F 47.4 °F 29.37 in NW 6.0 mph 17.3 mph 89 % 0.00 in
12:23 50.5 °F 47.7 °F 29.37 in NW 6.1 mph 12.7 mph 90 % 0.00 in
12:27 50.3 °F 47.2 °F 29.37 in WSW 11.1 mph 15.0 mph 89 % 0.00 in
12:32 50.2 °F 47.1 °F 29.37 in WSW 10.5 mph 18.4 mph 89 % 0.00 in
12:37 50.1 °F 47.0 °F 29.37 in SSW 5.2 mph 11.5 mph 89 % 0.00 in
12:42 50.0 °F 46.3 °F 29.37 in West 7.8 mph 15.0 mph 87 % 0.00 in
12:47 50.0 °F 46.0 °F 29.37 in NNW 7.6 mph 19.6 mph 86 % 0.00 in
12:50 50.0 °F 46.3 °F 29.37 in SW 5.8 mph 16.1 mph 87 % 0.00 in
12:53 50.0 °F 46.0 °F 29.37 in NW 8.6 mph 16.1 mph 86 % 0.00 in
12:58 50.0 °F 45.7 °F 29.37 in WNW 11.1 mph 18.4 mph 85 % 0.00 in
13:03 50.1 °F 45.5 °F 29.37 in NW 5.2 mph 15.0 mph 84 % 0.00 in
13:08 50.0 °F 45.0 °F 29.36 in WSW 9.2 mph 18.4 mph 83 % 0.00 in
13:13 50.0 °F 45.0 °F 29.37 in NW 8.5 mph 16.1 mph 83 % 0.00 in
13:18 50.0 °F 44.7 °F 29.37 in WNW 7.6 mph 18.4 mph 82 % 0.00 in
13:23 49.9 °F 44.6 °F 29.37 in West 6.7 mph 12.7 mph 82 % 0.00 in
13:26 49.9 °F 44.6 °F 29.38 in WSW 6.6 mph 13.0 mph 82 % 0.00 in
13:31 49.8 °F 44.8 °F 29.38 in WNW 7.1 mph 10.4 mph 83 % 0.00 in
13:32 49.8 °F 44.8 °F 29.38 in NW 6.7 mph 10.4 mph 83 % 0.00 in
13:37 49.6 °F 45.0 °F 29.38 in WSW 6.0 mph 10.4 mph 84 % 0.00 in
13:47 49.0 °F 44.7 °F 29.39 in NW 10.3 mph 23.0 mph 85 % 0.01 in
13:49 48.9 °F 44.6 °F 29.39 in WNW 8.2 mph 18.4 mph 85 % 0.02 in
13:54 48.5 °F 44.5 °F 29.39 in WNW 6.6 mph 19.0 mph 86 % 0.03 in
13:59 48.2 °F 44.5 °F 29.39 in WNW 9.6 mph 19.6 mph 87 % 0.04 in
14:02 48.1 °F 44.7 °F 29.39 in West 11.0 mph 20.0 mph 88 % 0.04 in
14:07 48.0 °F 45.2 °F 29.40 in NW 6.3 mph 14.0 mph 90 % 0.05 in
14:08 48.0 °F 45.2 °F 29.39 in WNW 7.8 mph 13.8 mph 90 % 0.05 in
14:14 47.8 °F 45.0 °F 29.39 in West 12.3 mph 29.0 mph 90 % 0.06 in
14:19 47.6 °F 44.8 °F 29.40 in West 9.6 mph 17.0 mph 90 % 0.07 in
14:25 47.4 °F 44.9 °F 29.40 in SSW 6.0 mph 13.0 mph 91 % 0.09 in
14:30 47.2 °F 44.7 °F 29.40 in West 4.8 mph 12.7 mph 91 % 0.09 in
14:32 47.2 °F 44.7 °F 29.40 in NNW 5.4 mph 12.0 mph 91 % 0.10 in
14:37 47.1 °F 44.9 °F 29.41 in WSW 10.3 mph 13.8 mph 92 % 0.10 in
14:44 47.1 °F 44.9 °F 29.41 in West 7.5 mph 16.1 mph 92 % 0.11 in
14:46 47.0 °F 44.8 °F 29.40 in WNW 8.2 mph 15.0 mph 92 % 0.10 in
14:51 47.0 °F 44.8 °F 29.41 in NW 8.7 mph 15.0 mph 92 % 0.09 in
14:53 47.0 °F 44.8 °F 29.41 in WSW 6.3 mph 15.0 mph 92 % 0.08 in
14:56 47.0 °F 44.8 °F 29.41 in WNW 5.2 mph 12.7 mph 92 % 0.08 in
15:02 47.0 °F 44.8 °F 29.41 in WNW 8.6 mph 13.0 mph 92 % 0.07 in
15:07 47.1 °F 44.6 °F 29.41 in North 7.3 mph 16.1 mph 91 % 0.06 in
15:11 47.2 °F 44.7 °F 29.41 in West 7.3 mph 15.0 mph 91 % 0.06 in
15:16 47.2 °F 44.7 °F 29.41 in WNW 10.9 mph 20.0 mph 91 % 0.04 in
15:17 47.3 °F 44.8 °F 29.41 in West 3.4 mph 19.6 mph 91 % 0.04 in
15:22 47.4 °F 44.9 °F 29.42 in WNW 5.0 mph 10.4 mph 91 % 0.03 in
15:23 47.4 °F 44.9 °F 29.42 in WNW 5.0 mph 10.4 mph 91 % 0.03 in
15:27 47.5 °F 44.7 °F 29.42 in NNW 11.0 mph 24.2 mph 90 % 0.03 in
15:32 47.6 °F 44.5 °F 29.42 in WNW 7.3 mph 17.3 mph 89 % 0.02 in
15:37 47.8 °F 44.7 °F 29.42 in WSW 10.2 mph 17.3 mph 89 % 0.02 in
15:42 47.9 °F 44.5 °F 29.42 in NW 9.2 mph 15.0 mph 88 % 0.02 in
15:45 48.1 °F 44.4 °F 29.42 in WNW 9.5 mph 20.0 mph 87 % 0.01 in
15:46 48.1 °F 44.1 °F 29.42 in NNW 10.1 mph 19.6 mph 86 % 0.01 in
15:51 48.3 °F 44.0 °F 29.42 in NW 7.1 mph 23.0 mph 85 % 0.01 in
15:56 48.5 °F 44.2 °F 29.43 in WSW 7.0 mph 14.0 mph 85 % 0.01 in
16:01 48.7 °F 44.4 °F 29.43 in WNW 6.3 mph 20.7 mph 85 % 0.01 in
16:04 48.8 °F 44.5 °F 29.44 in SW 5.5 mph 15.0 mph 85 % 0.01 in
16:06 48.8 °F 44.5 °F 29.43 in West 9.7 mph 16.1 mph 85 % 0.01 in
16:09 48.9 °F 44.3 °F 29.44 in West 7.7 mph 19.6 mph 84 % 0.01 in
16:14 49.0 °F 44.4 °F 29.44 in NW 5.5 mph 16.1 mph 84 % 0.01 in
16:19 49.1 °F 44.5 °F 29.44 in WNW 7.0 mph 15.0 mph 84 % 0.01 in
16:24 49.3 °F 45.0 °F 29.44 in SW 6.9 mph 12.7 mph 85 % 0.01 in
16:25 49.3 °F 44.7 °F 29.44 in West 4.9 mph 11.5 mph 84 % 0.00 in
16:29 49.4 °F 45.1 °F 29.44 in NNW 8.5 mph 17.3 mph 85 % 0.00 in
16:34 49.4 °F 44.8 °F 29.44 in WSW 8.8 mph 16.1 mph 84 % 0.00 in
16:39 49.4 °F 44.8 °F 29.44 in WSW 10.9 mph 19.6 mph 84 % 0.00 in
16:40 49.3 °F 44.4 °F 29.44 in WSW 11.4 mph 18.0 mph 83 % 0.00 in
16:42 49.3 °F 44.4 °F 29.45 in West 10.2 mph 21.0 mph 83 % 0.00 in
16:46 49.2 °F 44.3 °F 29.44 in West 7.2 mph 15.0 mph 83 % 0.00 in
16:51 49.1 °F 44.2 °F 29.45 in NE 10.0 mph 26.5 mph 83 % 0.00 in
16:56 49.0 °F 44.1 °F 29.45 in WNW 8.5 mph 18.4 mph 83 % 0.00 in
16:58 49.0 °F 44.1 °F 29.45 in West 9.1 mph 18.4 mph 83 % 0.00 in
17:03 49.0 °F 44.1 °F 29.46 in West 6.0 mph 17.3 mph 83 % 0.00 in
17:09 49.0 °F 44.1 °F 29.46 in West 12.0 mph 23.0 mph 83 % 0.00 in
17:10 49.0 °F 43.7 °F 29.46 in WSW 12.5 mph 29.0 mph 82 % 0.00 in
17:13 49.0 °F 43.4 °F 29.46 in NW 9.7 mph 17.3 mph 81 % 0.00 in
17:18 49.1 °F 43.5 °F 29.47 in WNW 12.0 mph 26.5 mph 81 % 0.00 in
17:23 49.1 °F 43.5 °F 29.47 in WSW 9.6 mph 19.6 mph 81 % 0.00 in
17:28 49.0 °F 43.1 °F 29.48 in North 10.9 mph 21.9 mph 80 % 0.00 in
17:32 48.9 °F 43.0 °F 29.48 in NW 12.5 mph 25.3 mph 80 % 0.00 in
17:37 48.9 °F 43.3 °F 29.48 in SW 12.0 mph 19.6 mph 81 % 0.00 in
17:42 48.8 °F 43.5 °F 29.49 in WSW 11.1 mph 15.0 mph 82 % 0.00 in
17:44 48.8 °F 43.2 °F 29.48 in West 8.0 mph 21.9 mph 81 % 0.00 in
17:49 48.7 °F 43.8 °F 29.49 in WNW 9.7 mph 16.1 mph 83 % 0.00 in
17:54 48.6 °F 44.0 °F 29.50 in WSW 12.3 mph 18.4 mph 84 % 0.00 in
18:00 48.5 °F 43.9 °F 29.49 in West 7.9 mph 12.0 mph 84 % 0.00 in
18:02 48.4 °F 44.1 °F 29.49 in West 9.9 mph 24.0 mph 85 % 0.00 in
18:07 48.3 °F 43.7 °F 29.49 in WNW 11.6 mph 20.7 mph 84 % 0.00 in
18:12 48.3 °F 43.4 °F 29.50 in WSW 10.3 mph 18.4 mph 83 % 0.00 in
18:17 48.3 °F 43.1 °F 29.50 in WSW 10.6 mph 18.0 mph 82 % 0.00 in
18:20 48.3 °F 43.1 °F 29.50 in SSW 6.8 mph 19.6 mph 82 % 0.00 in
18:24 48.3 °F 43.1 °F 29.50 in WSW 7.1 mph 19.6 mph 82 % 0.00 in
18:29 48.3 °F 42.7 °F 29.50 in NW 11.8 mph 19.6 mph 81 % 0.00 in
18:33 48.3 °F 42.7 °F 29.51 in WNW 6.9 mph 15.0 mph 81 % 0.00 in
18:43 48.2 °F 42.3 °F 29.52 in West 10.4 mph 18.4 mph 80 % 0.00 in
18:44 48.2 °F 42.3 °F 29.51 in West 12.0 mph 19.6 mph 80 % 0.00 in
18:49 48.1 °F 42.5 °F 29.52 in NW 10.3 mph 24.2 mph 81 % 0.00 in
18:54 48.0 °F 42.8 °F 29.52 in WNW 11.8 mph 16.1 mph 82 % 0.00 in
18:55 48.0 °F 42.8 °F 29.53 in WSW 7.6 mph 18.4 mph 82 % 0.00 in
19:00 47.9 °F 42.3 °F 29.53 in WSW 11.2 mph 17.3 mph 81 % 0.00 in
19:06 47.8 °F 42.3 °F 29.53 in West 9.0 mph 21.0 mph 81 % 0.00 in
19:11 47.7 °F 42.2 °F 29.53 in West 12.0 mph 20.0 mph 81 % 0.00 in
19:13 47.7 °F 42.5 °F 29.53 in SW 8.7 mph 18.4 mph 82 % 0.00 in
19:18 47.6 °F 42.4 °F 29.54 in WNW 13.7 mph 25.3 mph 82 % 0.00 in
19:23 47.6 °F 42.7 °F 29.54 in West 11.6 mph 20.7 mph 83 % 0.00 in
19:28 47.5 °F 42.6 °F 29.54 in SW 6.7 mph 11.5 mph 83 % 0.00 in
19:31 47.4 °F 42.2 °F 29.54 in SW 14.3 mph 30.0 mph 82 % 0.00 in
19:34 47.4 °F 42.2 °F 29.55 in SW 14.8 mph 25.0 mph 82 % 0.00 in
19:39 47.4 °F 42.2 °F 29.55 in West 9.1 mph 13.8 mph 82 % 0.00 in
19:44 47.4 °F 41.9 °F 29.55 in West 11.6 mph 20.7 mph 81 % 0.00 in
19:46 47.4 °F 41.9 °F 29.55 in WSW 10.2 mph 21.9 mph 81 % 0.00 in
19:51 47.4 °F 41.9 °F 29.55 in WNW 14.8 mph 21.0 mph 81 % 0.00 in
19:55 47.5 °F 41.6 °F 29.55 in WSW 8.2 mph 15.0 mph 80 % 0.00 in
20:00 47.6 °F 41.7 °F 29.55 in SW 8.6 mph 12.7 mph 80 % 0.00 in
20:05 47.6 °F 41.7 °F 29.55 in WSW 12.3 mph 20.7 mph 80 % 0.00 in
20:08 47.7 °F 41.8 °F 29.55 in West 9.4 mph 21.9 mph 80 % 0.00 in
20:13 47.8 °F 41.9 °F 29.55 in WNW 10.2 mph 17.3 mph 80 % 0.00 in
20:14 47.8 °F 41.9 °F 29.56 in WNW 11.3 mph 19.6 mph 80 % 0.00 in
20:16 47.9 °F 42.0 °F 29.56 in SW 8.4 mph 20.0 mph 80 % 0.00 in
20:21 48.0 °F 41.5 °F 29.55 in SW 11.6 mph 19.6 mph 78 % 0.00 in
20:26 48.1 °F 41.6 °F 29.56 in SSW 11.1 mph 19.6 mph 78 % 0.00 in
20:31 48.3 °F 41.4 °F 29.55 in SSW 10.4 mph 24.2 mph 77 % 0.00 in
20:36 48.5 °F 41.6 °F 29.55 in SSW 10.1 mph 18.0 mph 77 % 0.00 in
20:37 48.5 °F 41.6 °F 29.56 in WSW 8.3 mph 12.7 mph 77 % 0.00 in
20:42 48.6 °F 41.4 °F 29.55 in West 9.6 mph 23.0 mph 76 % 0.00 in
20:43 48.6 °F 41.4 °F 29.56 in West 10.5 mph 20.0 mph 76 % 0.00 in
20:46 48.7 °F 41.5 °F 29.56 in SSW 9.7 mph 19.6 mph 76 % 0.00 in
20:51 48.8 °F 41.6 °F 29.56 in WSW 8.5 mph 13.8 mph 76 % 0.00 in
20:52 48.8 °F 41.6 °F 29.56 in WSW 8.8 mph 16.1 mph 76 % 0.00 in
20:55 48.9 °F 42.0 °F 29.56 in SW 9.8 mph 11.5 mph 77 % 0.00 in
21:00 49.1 °F 41.9 °F 29.57 in WSW 8.6 mph 18.4 mph 76 % 0.00 in
21:03 49.2 °F 41.6 °F 29.57 in West 7.0 mph 21.9 mph 75 % 0.00 in
21:06 49.2 °F 42.0 °F 29.57 in West 8.4 mph 14.0 mph 76 % 0.00 in
21:11 49.3 °F 41.4 °F 29.57 in WNW 6.2 mph 17.3 mph 74 % 0.00 in
21:15 49.4 °F 40.7 °F 29.57 in WSW 9.6 mph 16.1 mph 72 % 0.00 in
21:16 49.4 °F 40.7 °F 29.57 in WNW 6.0 mph 11.5 mph 72 % 0.00 in
21:19 49.4 °F 41.1 °F 29.57 in SSW 10.8 mph 21.9 mph 73 % 0.00 in
21:24 49.5 °F 40.8 °F 29.57 in NW 7.9 mph 16.1 mph 72 % 0.00 in
21:26 49.5 °F 40.8 °F 29.57 in West 8.5 mph 15.0 mph 72 % 0.00 in
21:28 49.6 °F 40.9 °F 29.57 in NW 9.8 mph 13.0 mph 72 % 0.00 in
21:33 49.6 °F 40.9 °F 29.58 in SW 10.8 mph 19.6 mph 72 % 0.00 in
21:38 49.7 °F 39.9 °F 29.57 in West 11.7 mph 24.2 mph 69 % 0.00 in
21:43 49.8 °F 40.8 °F 29.57 in WNW 9.0 mph 17.3 mph 71 % 0.00 in
21:46 49.8 °F 40.0 °F 29.57 in WNW 11.7 mph 23.0 mph 69 % 0.00 in
21:48 49.9 °F 40.1 °F 29.57 in WSW 10.8 mph 21.9 mph 69 % 0.00 in
21:49 49.9 °F 40.1 °F 29.58 in WSW 9.8 mph 21.9 mph 69 % 0.00 in
21:54 49.9 °F 40.1 °F 29.58 in SW 6.6 mph 11.5 mph 69 % 0.00 in
21:56 49.9 °F 40.1 °F 29.58 in NW 9.3 mph 15.0 mph 69 % 0.00 in
21:57 49.9 °F 40.1 °F 29.58 in West 9.6 mph 15.0 mph 69 % 0.00 in
22:02 49.9 °F 39.8 °F 29.58 in SW 9.8 mph 19.6 mph 68 % 0.00 in
22:07 50.0 °F 40.6 °F 29.58 in SW 7.3 mph 16.1 mph 70 % 0.00 in
22:12 50.0 °F 40.6 °F 29.58 in WNW 7.6 mph 18.4 mph 70 % 0.00 in
22:21 50.1 °F 40.3 °F 29.59 in West 7.2 mph 17.0 mph 69 % 0.00 in
22:26 50.1 °F 39.9 °F 29.58 in SW 6.9 mph 9.0 mph 68 % 0.00 in
22:31 50.0 °F 39.5 °F 29.58 in WSW 7.1 mph 15.0 mph 67 % 0.00 in
22:35 50.0 °F 39.5 °F 29.59 in WNW 7.4 mph 18.4 mph 67 % 0.00 in
22:37 50.0 °F 39.5 °F 29.59 in West 3.5 mph 15.0 mph 67 % 0.00 in
22:42 50.0 °F 39.8 °F 29.59 in West 7.7 mph 17.3 mph 68 % 0.00 in
22:45 50.0 °F 39.8 °F 29.59 in NW 5.4 mph 11.0 mph 68 % 0.00 in
22:50 49.9 °F 39.4 °F 29.58 in NW 8.4 mph 15.0 mph 67 % 0.00 in
22:55 49.9 °F 39.8 °F 29.59 in SW 8.3 mph 12.0 mph 68 % 0.00 in
23:00 49.9 °F 39.4 °F 29.59 in NNW 12.3 mph 18.4 mph 67 % 0.00 in
23:05 49.9 °F 39.4 °F 29.59 in WNW 8.7 mph 18.4 mph 67 % 0.00 in
23:07 49.9 °F 39.8 °F 29.59 in WNW 10.1 mph 19.6 mph 68 % 0.00 in
23:09 49.9 °F 39.4 °F 29.60 in WSW 5.3 mph 9.2 mph 67 % 0.00 in
23:14 49.9 °F 39.4 °F 29.59 in SW 5.8 mph 11.0 mph 67 % 0.00 in
23:19 49.9 °F 39.8 °F 29.60 in West 9.7 mph 12.7 mph 68 % 0.00 in
23:24 49.9 °F 39.8 °F 29.59 in SSW 9.1 mph 16.1 mph 68 % 0.00 in
23:29 49.9 °F 39.0 °F 29.60 in SE 8.9 mph 18.4 mph 66 % 0.00 in
23:34 49.9 °F 39.0 °F 29.59 in SW 4.0 mph 9.2 mph 66 % 0.00 in
23:39 49.9 °F 39.4 °F 29.59 in WSW 4.7 mph 11.5 mph 67 % 0.00 in
23:44 49.9 °F 39.4 °F 29.60 in WNW 6.6 mph 15.0 mph 67 % 0.00 in
23:50 50.0 °F 39.5 °F 29.60 in WNW 7.4 mph 18.4 mph 67 % 0.00 in
23:55 50.0 °F 39.1 °F 29.60 in South 8.0 mph 19.6 mph 66 % 0.00 in
Crab Meadow Weather
Compliments of Weather Underground - 3.25 mb

Script developed by  Jim McMurry - jmcmurry@mwt.net Adapted for the template by  Wim van der Kuil - Leuven-Template.eu

Dew Point: The dew point is the temperature to which air must be cooled, at constant barometric pressure, for water vapor to condense into water. The condensed water is called dew. When the dew point temperature falls below freezing it is called the frost point, as the water no longer creates dew but instead creates frost. The dew point is associated with relative humidity. A high relative humidity indicates that the dew point is closer to the current air temperature. If the relative humidity is 100%, the dew point is equal to the current temperature. Given a constant dew point, an increase in temperature will lead to a decrease in relative humidity.